Time;durP1;ratioP1;P1;durP2;ratioP2;P2;SDS_P1;SDS_P2;PMS_P1;PMS_P2;Temp;Humidity;BMP_temperature;BMP_pressure;BME280_temperature;BME280_humidity;BME280_pressure;Samples;Min_cycle;Max_cycle;Signal;HPM_P1;HPM_P2
2021/10/12 00:00:49;;;;;;;8.38;1.33;;;;;;;;;;5013414;28;20026;-88
2021/10/12 00:03:14;;;;;;;11.65;1.27;;;;;;;;;;5017060;28;20075;-89
2021/10/12 00:05:39;;;;;;;7.33;1.20;;;;;;;;;;5031296;28;20018;-88
2021/10/12 00:08:04;;;;;;;13.03;1.47;;;;;;;;;;5030971;28;20252;-89
2021/10/12 00:10:30;;;;;;;7.43;1.10;;;;;;;;;;5013346;28;20059;-88
2021/10/12 00:12:55;;;;;;;6.53;1.10;;;;;;;;;;5031087;28;20057;-88
2021/10/12 00:15:21;;;;;;;9.75;1.10;;;;;;;;;;5031401;28;20928;-89
2021/10/12 00:17:46;;;;;;;8.38;1.40;;;;;;;;;;5031117;28;20042;-89
2021/10/12 00:20:11;;;;;;;41.33;2.38;;;;;;;;;;5031296;28;20017;-89
2021/10/12 00:22:37;;;;;;;10.30;1.30;;;;;;;;;;5015424;28;20022;-89
2021/10/12 00:25:03;;;;;;;9.60;1.13;;;;;;;;;;5013280;28;20813;-89
2021/10/12 00:27:28;;;;;;;6.82;1.20;;;;;;;;;;5013327;28;20104;-89
2021/10/12 00:29:53;;;;;;;6.55;1.42;;;;;;;;;;5030919;28;20452;-89
2021/10/12 00:32:19;;;;;;;13.95;2.10;;;;;;;;;;5012974;28;20489;-89
2021/10/12 00:34:44;;;;;;;14.88;1.40;;;;;;;;;;5012773;28;20018;-89
2021/10/12 00:37:12;;;;;;;10.95;1.50;;;;;;;;;;5013165;28;20071;-89
2021/10/12 00:39:38;;;;;;;11.52;1.50;;;;;;;;;;5030899;28;20101;-89
2021/10/12 00:42:03;;;;;;;7.63;1.20;;;;;;;;;;5016749;28;20065;-89
2021/10/12 00:44:28;;;;;;;8.23;1.40;;;;;;;;;;5012920;28;20017;-89
2021/10/12 00:46:53;;;;;;;8.43;1.55;;;;;;;;;;5029388;28;20029;-89
2021/10/12 00:49:19;;;;;;;14.88;1.52;;;;;;;;;;5030564;28;20044;-88
2021/10/12 00:51:44;;;;;;;10.20;1.52;;;;;;;;;;5013100;28;20833;-89
2021/10/12 00:54:10;;;;;;;8.90;1.25;;;;;;;;;;5029491;28;20091;-88
2021/10/12 00:56:35;;;;;;;9.27;1.45;;;;;;;;;;5029232;28;20033;-89
2021/10/12 00:59:01;;;;;;;8.38;1.90;;;;;;;;;;5014102;28;20017;-89
2021/10/12 01:01:26;;;;;;;9.18;1.45;;;;;;;;;;5032212;28;20075;-89
2021/10/12 01:03:51;;;;;;;6.23;1.17;;;;;;;;;;5012775;28;20036;-89
2021/10/12 01:06:17;;;;;;;11.27;1.40;;;;;;;;;;5030649;28;20312;-89
2021/10/12 01:08:42;;;;;;;6.50;1.65;;;;;;;;;;5030401;28;20300;-89
2021/10/12 01:11:07;;;;;;;9.77;1.75;;;;;;;;;;5029209;28;20017;-89
2021/10/12 01:13:32;;;;;;;9.18;1.55;;;;;;;;;;5030289;28;20056;-89
2021/10/12 01:15:58;;;;;;;9.38;1.63;;;;;;;;;;5028747;28;20021;-89
2021/10/12 01:18:23;;;;;;;8.77;1.63;;;;;;;;;;5031964;28;20036;-89
2021/10/12 01:20:52;;;;;;;8.80;1.60;;;;;;;;;;5012705;28;20648;-89
2021/10/12 01:23:17;;;;;;;15.50;1.77;;;;;;;;;;5012513;28;20025;-89
2021/10/12 01:25:43;;;;;;;7.07;2.75;;;;;;;;;;5030247;28;20032;-89
2021/10/12 01:28:08;;;;;;;6.13;1.50;;;;;;;;;;5028743;28;20482;-89
2021/10/12 01:30:34;;;;;;;8.55;1.67;;;;;;;;;;5012444;28;20028;-89
2021/10/12 01:33:00;;;;;;;8.85;1.50;;;;;;;;;;5012662;28;20025;-89
2021/10/12 01:35:25;;;;;;;11.18;1.60;;;;;;;;;;5012946;28;20017;-89
2021/10/12 01:37:50;;;;;;;8.53;1.43;;;;;;;;;;5012389;28;20116;-89
2021/10/12 01:40:17;;;;;;;6.15;1.45;;;;;;;;;;5028719;28;20751;-89
2021/10/12 01:42:43;;;;;;;5.72;1.38;;;;;;;;;;5012508;28;20112;-89
2021/10/12 01:45:08;;;;;;;6.55;1.42;;;;;;;;;;5012385;28;20104;-89
2021/10/12 01:47:34;;;;;;;5.47;1.42;;;;;;;;;;5014216;28;20465;-89
2021/10/12 01:49:59;;;;;;;11.23;1.52;;;;;;;;;;5016112;28;20059;-89
2021/10/12 01:52:24;;;;;;;8.05;1.40;;;;;;;;;;5015941;28;20056;-89
2021/10/12 01:54:50;;;;;;;8.77;1.40;;;;;;;;;;5035754;28;20461;-89
2021/10/12 01:57:17;;;;;;;9.65;1.90;;;;;;;;;;5015954;28;20063;-89
2021/10/12 01:59:42;;;;;;;9.93;2.03;;;;;;;;;;5033643;28;20075;-88
2021/10/12 02:02:07;;;;;;;12.37;1.50;;;;;;;;;;5015977;28;20798;-89
2021/10/12 02:04:33;;;;;;;9.85;2.03;;;;;;;;;;5015599;28;20267;-89
2021/10/12 02:06:58;;;;;;;8.27;1.95;;;;;;;;;;5033730;28;20025;-89
2021/10/12 02:09:23;;;;;;;8.35;1.40;;;;;;;;;;5015657;28;20114;-89
2021/10/12 02:11:49;;;;;;;7.97;1.48;;;;;;;;;;5015783;28;20028;-89
2021/10/12 02:14:14;;;;;;;10.77;1.58;;;;;;;;;;5016591;28;20049;-89
2021/10/12 02:16:39;;;;;;;9.15;2.42;;;;;;;;;;5015607;28;20029;-89
2021/10/12 02:19:05;;;;;;;7.97;1.35;;;;;;;;;;5032165;28;20138;-89
2021/10/12 02:21:30;;;;;;;11.50;1.98;;;;;;;;;;5015457;28;20037;-89
2021/10/12 02:23:55;;;;;;;11.77;1.60;;;;;;;;;;5015402;28;20032;-89
2021/10/12 02:26:21;;;;;;;9.20;1.48;;;;;;;;;;5033014;28;20025;-89
2021/10/12 02:28:46;;;;;;;13.18;1.30;;;;;;;;;;5015235;28;20125;-89
2021/10/12 02:31:11;;;;;;;15.90;1.88;;;;;;;;;;5033207;28;20480;-89
2021/10/12 02:33:36;;;;;;;6.78;1.48;;;;;;;;;;5035378;28;20029;-89
2021/10/12 02:36:02;;;;;;;6.13;1.70;;;;;;;;;;5033046;28;20173;-89
2021/10/12 02:38:27;;;;;;;8.57;1.40;;;;;;;;;;5015057;28;20272;-88
2021/10/12 02:40:52;;;;;;;4.82;1.40;;;;;;;;;;5031402;28;20025;-88
2021/10/12 02:43:18;;;;;;;6.90;1.50;;;;;;;;;;5015326;28;20024;-88
2021/10/12 02:45:43;;;;;;;9.23;1.50;;;;;;;;;;5014953;28;20326;-89
2021/10/12 02:48:08;;;;;;;9.27;1.40;;;;;;;;;;5031414;28;20021;-89
2021/10/12 02:50:33;;;;;;;7.63;1.75;;;;;;;;;;5032665;28;20319;-89
2021/10/12 02:52:59;;;;;;;7.32;1.50;;;;;;;;;;5016699;28;20033;-88
2021/10/12 02:55:24;;;;;;;6.70;1.37;;;;;;;;;;5032830;28;20112;-88
2021/10/12 02:57:49;;;;;;;8.68;1.60;;;;;;;;;;5032637;28;20256;-89
2021/10/12 03:00:14;;;;;;;8.40;2.75;;;;;;;;;;5014587;28;20081;-89
2021/10/12 03:02:40;;;;;;;12.05;2.17;;;;;;;;;;5014735;28;20049;-89
2021/10/12 03:05:05;;;;;;;8.30;1.40;;;;;;;;;;5032419;28;20018;-89
2021/10/12 03:07:30;;;;;;;10.43;1.83;;;;;;;;;;5014625;28;20276;-89
2021/10/12 03:09:55;;;;;;;5.67;1.70;;;;;;;;;;5014324;28;20037;-89
2021/10/12 03:12:20;;;;;;;10.43;2.43;;;;;;;;;;5033132;28;20495;-89
2021/10/12 03:14:46;;;;;;;6.27;1.50;;;;;;;;;;5032455;28;20383;-89
2021/10/12 03:17:11;;;;;;;10.60;1.73;;;;;;;;;;5014436;28;20771;-89
2021/10/12 03:19:36;;;;;;;9.40;1.80;;;;;;;;;;5032079;28;20032;-89
2021/10/12 03:22:11;;;;;;;10.80;1.60;;;;;;;;;;5014292;28;20286;-89
2021/10/12 03:24:36;;;;;;;11.90;1.88;;;;;;;;;;5014591;28;20478;-89
2021/10/12 03:27:02;;;;;;;9.88;1.60;;;;;;;;;;5033720;28;20032;-89
2021/10/12 03:29:27;;;;;;;16.00;1.98;;;;;;;;;;5016906;28;20033;-89
2021/10/12 03:31:52;;;;;;;7.10;1.53;;;;;;;;;;5037233;28;20025;-89
2021/10/12 03:34:17;;;;;;;13.43;2.30;;;;;;;;;;5015616;28;20295;-89
2021/10/12 03:36:43;;;;;;;7.32;1.30;;;;;;;;;;5031952;28;20100;-89
2021/10/12 03:39:08;;;;;;;10.02;2.00;;;;;;;;;;5013857;28;20044;-89
2021/10/12 03:41:33;;;;;;;6.93;1.63;;;;;;;;;;5030347;28;20025;-89
2021/10/12 03:43:58;;;;;;;6.47;2.33;;;;;;;;;;5013889;28;20021;-89
2021/10/12 03:46:23;;;;;;;7.10;1.60;;;;;;;;;;5031451;28;20291;-89
2021/10/12 03:48:49;;;;;;;7.38;1.83;;;;;;;;;;5013945;28;20136;-89
2021/10/12 03:51:14;;;;;;;7.87;1.63;;;;;;;;;;5031594;28;20438;-89
2021/10/12 03:53:39;;;;;;;18.85;3.25;;;;;;;;;;5033869;28;20260;-90
2021/10/12 03:56:04;;;;;;;7.63;2.00;;;;;;;;;;5015865;28;20025;-89
2021/10/12 03:58:30;;;;;;;10.25;1.98;;;;;;;;;;5013966;28;20055;-89
2021/10/12 04:00:55;;;;;;;9.55;1.80;;;;;;;;;;5013511;28;20029;-89
2021/10/12 04:03:20;;;;;;;7.40;1.40;;;;;;;;;;5030176;28;20100;-89
2021/10/12 04:05:46;;;;;;;6.95;1.77;;;;;;;;;;5031371;28;20029;-90
2021/10/12 04:08:11;;;;;;;11.77;1.73;;;;;;;;;;5031356;28;20103;-89
2021/10/12 04:10:36;;;;;;;13.65;1.65;;;;;;;;;;5012845;28;20028;-90
2021/10/12 04:13:03;;;;;;;4.57;1.70;;;;;;;;;;5031157;28;20057;-91
2021/10/12 04:15:28;;;;;;;11.50;2.45;;;;;;;;;;5016650;28;20374;-89
2021/10/12 04:17:53;;;;;;;4.95;1.35;;;;;;;;;;5029842;28;20032;-89
2021/10/12 04:20:24;;;;;;;4.97;1.77;;;;;;;;;;5013225;28;20536;-89
2021/10/12 04:22:49;;;;;;;7.88;1.73;;;;;;;;;;5013006;28;20095;-89
2021/10/12 04:25:14;;;;;;;12.87;1.80;;;;;;;;;;5031018;28;20060;-89
2021/10/12 04:27:39;;;;;;;5.20;1.85;;;;;;;;;;5013324;28;20355;-89
2021/10/12 04:30:05;;;;;;;7.90;1.73;;;;;;;;;;5013108;28;20030;-89
2021/10/12 04:32:30;;;;;;;6.28;2.08;;;;;;;;;;5033165;28;20018;-89
2021/10/12 04:34:55;;;;;;;11.45;2.28;;;;;;;;;;5013271;28;20385;-89
2021/10/12 04:37:20;;;;;;;11.20;2.72;;;;;;;;;;5031311;28;20021;-89
2021/10/12 04:39:46;;;;;;;11.10;1.98;;;;;;;;;;5013177;28;20032;-89
2021/10/12 04:42:11;;;;;;;8.85;1.77;;;;;;;;;;5013342;28;20026;-89
2021/10/12 04:44:36;;;;;;;9.10;2.00;;;;;;;;;;5013292;28;20080;-89
2021/10/12 04:47:02;;;;;;;9.68;1.92;;;;;;;;;;5020039;28;20351;-89
2021/10/12 04:49:29;;;;;;;10.52;1.85;;;;;;;;;;5027831;28;20556;-89
2021/10/12 04:51:54;;;;;;;9.50;2.20;;;;;;;;;;5010701;28;20029;-88
2021/10/12 04:54:20;;;;;;;10.85;2.65;;;;;;;;;;5030489;28;20044;-89
2021/10/12 04:56:45;;;;;;;5.72;2.38;;;;;;;;;;5028846;28;20017;-89
2021/10/12 04:59:10;;;;;;;11.38;1.80;;;;;;;;;;5011962;28;20021;-89
2021/10/12 05:01:35;;;;;;;10.77;2.20;;;;;;;;;;5011804;28;20030;-89
2021/10/12 05:04:00;;;;;;;8.73;1.92;;;;;;;;;;5029289;28;20021;-89
2021/10/12 05:06:26;;;;;;;14.57;2.73;;;;;;;;;;5030360;28;20025;-89
2021/10/12 05:08:51;;;;;;;10.88;2.00;;;;;;;;;;5013021;28;20296;-89
2021/10/12 05:11:22;;;;;;;13.02;2.53;;;;;;;;;;5030259;28;20424;-89
2021/10/12 05:13:49;;;;;;;10.68;2.47;;;;;;;;;;5011967;28;20100;-89
2021/10/12 05:16:15;;;;;;;11.68;2.22;;;;;;;;;;5011820;28;20026;-89
2021/10/12 05:18:42;;;;;;;8.73;3.08;;;;;;;;;;5012231;28;20031;-89
2021/10/12 05:21:08;;;;;;;8.10;1.95;;;;;;;;;;5012714;28;20021;-89
2021/10/12 05:23:33;;;;;;;11.70;2.08;;;;;;;;;;5034045;28;20470;-89
2021/10/12 05:25:58;;;;;;;11.57;1.85;;;;;;;;;;5018540;28;20014;-90
2021/10/12 05:28:26;;;;;;;12.38;2.15;;;;;;;;;;5017307;28;20028;-89
2021/10/12 05:30:53;;;;;;;14.32;2.30;;;;;;;;;;5032838;28;20056;-90
2021/10/12 05:33:23;;;;;;;9.00;1.88;;;;;;;;;;5014749;28;20033;-89
2021/10/12 05:35:49;;;;;;;14.75;2.10;;;;;;;;;;5015758;28;20021;-89
2021/10/12 05:38:15;;;;;;;6.47;1.90;;;;;;;;;;5015841;28;20028;-89
2021/10/12 05:40:41;;;;;;;10.63;2.22;;;;;;;;;;5015697;28;20025;-89
2021/10/12 05:43:06;;;;;;;12.52;2.40;;;;;;;;;;5015679;28;20470;-89
2021/10/12 05:45:34;;;;;;;14.97;3.23;;;;;;;;;;5015463;28;20030;-89
2021/10/12 05:48:00;;;;;;;15.02;2.88;;;;;;;;;;5015714;28;20744;-89
2021/10/12 05:50:25;;;;;;;14.05;3.13;;;;;;;;;;5015207;28;20037;-89
2021/10/12 05:53:16;;;;;;;15.10;3.45;;;;;;;;;;5015459;28;20021;-89
2021/10/12 05:55:53;;;;;;;8.48;2.50;;;;;;;;;;5015677;28;20033;-89
2021/10/12 05:58:31;;;;;;;10.65;2.30;;;;;;;;;;5015338;28;20163;-89
2021/10/12 06:00:56;;;;;;;10.38;2.58;;;;;;;;;;5032882;28;20021;-89
2021/10/12 06:03:22;;;;;;;13.05;3.65;;;;;;;;;;5031504;28;20029;-89
2021/10/12 06:05:50;;;;;;;14.63;3.25;;;;;;;;;;5033342;28;20044;-89
2021/10/12 06:08:15;;;;;;;14.45;3.40;;;;;;;;;;5015035;28;20071;-89
2021/10/12 06:10:41;;;;;;;12.32;2.80;;;;;;;;;;5022820;28;20021;-89
2021/10/12 06:13:10;;;;;;;12.55;3.03;;;;;;;;;;5013012;28;20575;-89
2021/10/12 06:15:36;;;;;;;12.15;3.00;;;;;;;;;;5012073;28;20029;-88
2021/10/12 06:18:01;;;;;;;11.13;3.03;;;;;;;;;;5013400;28;20026;-89
2021/10/12 06:20:26;;;;;;;9.70;2.70;;;;;;;;;;5017561;28;20108;-88
2021/10/12 06:22:51;;;;;;;13.15;3.92;;;;;;;;;;5017965;28;20104;-88
2021/10/12 06:25:16;;;;;;;9.67;3.33;;;;;;;;;;5017690;28;20021;-88
2021/10/12 06:27:43;;;;;;;17.60;3.70;;;;;;;;;;5018237;28;20298;-88
2021/10/12 06:30:08;;;;;;;11.07;3.83;;;;;;;;;;5034759;28;20037;-88
2021/10/12 06:32:34;;;;;;;10.20;3.28;;;;;;;;;;5033570;28;20071;-88
2021/10/12 06:34:59;;;;;;;12.15;3.40;;;;;;;;;;5035347;28;20023;-89
2021/10/12 06:37:24;;;;;;;15.05;3.70;;;;;;;;;;5017800;28;20052;-88
2021/10/12 06:39:50;;;;;;;11.57;2.72;;;;;;;;;;5016882;28;20407;-89
2021/10/12 06:42:15;;;;;;;9.90;2.80;;;;;;;;;;5032987;28;20033;-89
2021/10/12 06:44:40;;;;;;;13.47;3.10;;;;;;;;;;5032308;28;20263;-88
2021/10/12 06:47:05;;;;;;;15.20;3.15;;;;;;;;;;5032152;28;20252;-88
2021/10/12 06:49:30;;;;;;;8.10;2.22;;;;;;;;;;5032139;28;20410;-88
2021/10/12 06:51:56;;;;;;;14.67;2.70;;;;;;;;;;5030646;28;20021;-88
2021/10/12 06:54:21;;;;;;;12.50;2.87;;;;;;;;;;5013884;28;20647;-88
2021/10/12 06:56:48;;;;;;;11.13;2.57;;;;;;;;;;5014485;28;20271;-88
2021/10/12 06:59:14;;;;;;;11.18;2.95;;;;;;;;;;5014207;28;20284;-88
2021/10/12 07:01:39;;;;;;;15.55;2.75;;;;;;;;;;5031569;28;20034;-88
2021/10/12 07:04:04;;;;;;;13.52;3.45;;;;;;;;;;5032072;28;20021;-88
2021/10/12 07:06:30;;;;;;;11.17;2.40;;;;;;;;;;5013990;28;20025;-88
2021/10/12 07:08:55;;;;;;;12.35;3.80;;;;;;;;;;5013977;28;20295;-88
2021/10/12 07:11:20;;;;;;;11.20;2.45;;;;;;;;;;5031733;28;20505;-88
2021/10/12 07:13:47;;;;;;;8.10;2.20;;;;;;;;;;5031797;28;20509;-88
2021/10/12 07:16:12;;;;;;;8.10;2.00;;;;;;;;;;5013827;28;20031;-89
2021/10/12 07:18:38;;;;;;;16.77;2.60;;;;;;;;;;5013842;28;20030;-88
2021/10/12 07:21:03;;;;;;;7.33;2.13;;;;;;;;;;5013710;28;20057;-89
2021/10/12 07:23:28;;;;;;;13.82;2.92;;;;;;;;;;5030265;28;21105;-88
2021/10/12 07:25:54;;;;;;;10.97;2.80;;;;;;;;;;5031525;28;20034;-89
2021/10/12 07:28:19;;;;;;;15.77;3.05;;;;;;;;;;5013470;28;20296;-89
2021/10/12 07:30:44;;;;;;;16.00;3.35;;;;;;;;;;5031564;28;20083;-89
2021/10/12 07:33:09;;;;;;;10.30;2.20;;;;;;;;;;5031529;28;20653;-89
2021/10/12 07:35:35;;;;;;;19.90;3.38;;;;;;;;;;5029921;28;20021;-89
2021/10/12 07:38:01;;;;;;;11.70;2.70;;;;;;;;;;5013311;28;20025;-89
2021/10/12 07:40:26;;;;;;;20.98;3.95;;;;;;;;;;5013935;28;20812;-89
2021/10/12 07:42:52;;;;;;;17.38;2.60;;;;;;;;;;5013709;28;20075;-89
2021/10/12 07:45:17;;;;;;;12.13;2.67;;;;;;;;;;5012631;28;20018;-89
2021/10/12 07:47:42;;;;;;;13.93;2.92;;;;;;;;;;5031267;28;20056;-89
2021/10/12 07:50:07;;;;;;;12.25;2.67;;;;;;;;;;5029617;28;20068;-89
2021/10/12 07:52:33;;;;;;;8.93;2.58;;;;;;;;;;5031035;28;20064;-89
2021/10/12 07:55:12;;;;;;;16.30;2.83;;;;;;;;;;5031273;28;20021;-89
2021/10/12 07:57:37;;;;;;;14.13;3.25;;;;;;;;;;5013116;28;20115;-89
2021/10/12 08:00:03;;;;;;;10.82;2.20;;;;;;;;;;5012768;28;20108;-89
2021/10/12 08:02:29;;;;;;;10.35;2.33;;;;;;;;;;5012900;28;20039;-89
2021/10/12 08:04:54;;;;;;;17.25;2.05;;;;;;;;;;5013255;28;20740;-89
2021/10/12 08:07:19;;;;;;;14.50;3.17;;;;;;;;;;5012970;28;20021;-88
2021/10/12 08:09:44;;;;;;;12.37;2.23;;;;;;;;;;5030544;28;20049;-89
2021/10/12 08:12:09;;;;;;;8.63;1.80;;;;;;;;;;5030551;28;20355;-89
2021/10/12 08:14:41;;;;;;;7.33;2.53;;;;;;;;;;5012740;28;20160;-89
2021/10/12 08:17:06;;;;;;;9.27;1.75;;;;;;;;;;5010713;28;20355;-89
2021/10/12 08:19:31;;;;;;;12.48;2.55;;;;;;;;;;5029893;28;20108;-89
2021/10/12 08:21:57;;;;;;;13.27;2.38;;;;;;;;;;5012184;28;20457;-89
2021/10/12 08:24:22;;;;;;;9.60;2.80;;;;;;;;;;5012197;28;20033;-89
2021/10/12 08:26:49;;;;;;;7.63;1.93;;;;;;;;;;5029774;28;20453;-89
2021/10/12 08:29:14;;;;;;;7.88;2.55;;;;;;;;;;5012243;28;20344;-89
2021/10/12 08:31:39;;;;;;;12.27;2.20;;;;;;;;;;5030027;28;20025;-89
2021/10/12 08:34:05;;;;;;;8.55;1.95;;;;;;;;;;5030003;28;20021;-89
2021/10/12 08:36:30;;;;;;;11.32;2.05;;;;;;;;;;5030004;28;20017;-89
2021/10/12 08:38:56;;;;;;;6.22;2.00;;;;;;;;;;5028787;28;20028;-88
2021/10/12 08:41:29;;;;;;;10.05;1.85;;;;;;;;;;5012345;28;20045;-89
2021/10/12 08:43:55;;;;;;;9.73;2.05;;;;;;;;;;5012259;28;20033;-89
2021/10/12 08:46:23;;;;;;;12.18;2.55;;;;;;;;;;5029507;28;20028;-88
2021/10/12 08:48:48;;;;;;;7.85;2.10;;;;;;;;;;5011731;28;20033;-89
2021/10/12 08:51:13;;;;;;;11.57;2.80;;;;;;;;;;5029464;28;20017;-89
2021/10/12 08:53:39;;;;;;;9.95;2.40;;;;;;;;;;5029567;28;20025;-89
2021/10/12 08:56:04;;;;;;;11.77;2.25;;;;;;;;;;5027327;28;20112;-89
2021/10/12 08:58:30;;;;;;;11.25;1.88;;;;;;;;;;5029585;28;20025;-88
2021/10/12 09:01:05;;;;;;;10.63;1.77;;;;;;;;;;5027950;28;20064;-89
2021/10/12 09:03:45;;;;;;;10.68;2.03;;;;;;;;;;5011808;28;20271;-88
2021/10/12 09:06:10;;;;;;;9.27;2.05;;;;;;;;;;5029350;28;20029;-89
2021/10/12 09:08:38;;;;;;;12.57;2.17;;;;;;;;;;5029327;28;20037;-88
2021/10/12 09:11:04;;;;;;;8.50;1.65;;;;;;;;;;5029192;28;20017;-89
2021/10/12 09:13:42;;;;;;;9.80;2.45;;;;;;;;;;5011011;28;20049;-88
2021/10/12 09:16:08;;;;;;;7.35;2.45;;;;;;;;;;5029137;28;20033;-89
2021/10/12 09:18:47;;;;;;;6.10;1.77;;;;;;;;;;5027940;28;20026;-89
2021/10/12 09:21:16;;;;;;;8.65;1.60;;;;;;;;;;5029375;28;20124;-89
2021/10/12 09:23:41;;;;;;;10.77;2.00;;;;;;;;;;5028291;28;20030;-89
2021/10/12 09:26:20;;;;;;;19.30;3.25;;;;;;;;;;5011477;28;20048;-89
2021/10/12 09:28:45;;;;;;;8.75;3.10;;;;;;;;;;5029540;28;20034;-89
2021/10/12 09:31:11;;;;;;;14.10;1.98;;;;;;;;;;5011585;28;20047;-89
2021/10/12 09:33:54;;;;;;;12.82;3.00;;;;;;;;;;5029416;28;20021;-89
2021/10/12 09:36:25;;;;;;;10.77;2.00;;;;;;;;;;5029201;28;20033;-89
2021/10/12 09:38:50;;;;;;;8.45;1.60;;;;;;;;;;5029255;28;20021;-89
2021/10/12 09:41:16;;;;;;;8.27;2.05;;;;;;;;;;5011174;28;20396;-89
2021/10/12 09:43:41;;;;;;;10.80;2.42;;;;;;;;;;5029160;28;20362;-89
2021/10/12 09:46:20;;;;;;;8.43;2.03;;;;;;;;;;5011350;28;20032;-89
2021/10/12 09:48:45;;;;;;;14.50;2.28;;;;;;;;;;5011526;28;20303;-89
2021/10/12 09:51:15;;;;;;;6.93;1.77;;;;;;;;;;5027691;28;20024;-89
2021/10/12 09:53:44;;;;;;;6.32;1.30;;;;;;;;;;5028835;28;20727;-89
2021/10/12 09:56:09;;;;;;;9.18;2.10;;;;;;;;;;5029072;28;20025;-89
2021/10/12 09:58:36;;;;;;;6.78;1.55;;;;;;;;;;5029067;28;20743;-89
2021/10/12 10:01:04;;;;;;;10.57;2.03;;;;;;;;;;5011168;28;20026;-89
2021/10/12 10:03:30;;;;;;;7.15;1.27;;;;;;;;;;5027473;28;20021;-88
2021/10/12 10:06:03;;;;;;;7.80;1.85;;;;;;;;;;5028919;28;20033;-88
2021/10/12 10:08:29;;;;;;;9.45;1.67;;;;;;;;;;5030492;28;20025;-89
2021/10/12 10:10:55;;;;;;;8.80;1.50;;;;;;;;;;5032854;28;20029;-89
2021/10/12 10:13:21;;;;;;;9.60;1.65;;;;;;;;;;5016983;28;20041;-89
2021/10/12 10:15:49;;;;;;;7.47;1.48;;;;;;;;;;5018324;28;20151;-89
2021/10/12 10:18:16;;;;;;;8.27;1.55;;;;;;;;;;5038802;28;20060;-89
2021/10/12 10:20:41;;;;;;;6.90;1.30;;;;;;;;;;5044057;28;20022;-89
2021/10/12 10:23:06;;;;;;;10.15;2.42;;;;;;;;;;5043991;28;20024;-89
2021/10/12 10:25:34;;;;;;;10.43;1.57;;;;;;;;;;5042295;28;20107;-89
2021/10/12 10:28:18;;;;;;;7.68;1.92;;;;;;;;;;5028377;28;20272;-89
2021/10/12 10:30:49;;;;;;;7.80;1.40;;;;;;;;;;5014833;28;20033;-89
2021/10/12 10:33:31;;;;;;;9.88;1.50;;;;;;;;;;5015788;28;20049;-87
2021/10/12 10:36:00;;;;;;;7.03;1.45;;;;;;;;;;5015131;28;20385;-87
2021/10/12 10:38:36;;;;;;;6.15;1.40;;;;;;;;;;5032416;28;20524;-87
2021/10/12 10:41:04;;;;;;;8.30;1.70;;;;;;;;;;5014570;28;20508;-87
2021/10/12 10:43:48;;;;;;;9.95;1.45;;;;;;;;;;5014102;28;20025;-87
2021/10/12 10:46:31;;;;;;;6.38;1.52;;;;;;;;;;5032188;28;20022;-88
2021/10/12 10:49:24;;;;;;;8.05;1.70;;;;;;;;;;5013704;28;20029;-88
2021/10/12 10:51:56;;;;;;;10.95;1.83;;;;;;;;;;5028411;28;20059;-88
2021/10/12 10:54:36;;;;;;;6.93;1.38;;;;;;;;;;5013979;28;20021;-87
2021/10/12 10:57:12;;;;;;;12.13;2.10;;;;;;;;;;5014058;28;20708;-88
2021/10/12 10:59:37;;;;;;;6.07;1.40;;;;;;;;;;5032279;28;20029;-88
2021/10/12 11:02:02;;;;;;;6.90;1.48;;;;;;;;;;5013912;28;20021;-88
2021/10/12 11:04:40;;;;;;;10.02;2.25;;;;;;;;;;5013334;28;20025;-88
2021/10/12 11:07:06;;;;;;;9.30;1.77;;;;;;;;;;5029694;28;20028;-88
2021/10/12 11:09:41;;;;;;;9.05;2.05;;;;;;;;;;5031086;28;20041;-88
2021/10/12 11:12:15;;;;;;;7.13;1.42;;;;;;;;;;5013815;28;20047;-88
2021/10/12 11:14:40;;;;;;;13.35;1.60;;;;;;;;;;5012892;28;20053;-88
2021/10/12 11:17:09;;;;;;;7.60;2.38;;;;;;;;;;5029512;28;20436;-88
2021/10/12 11:19:51;;;;;;;7.97;1.70;;;;;;;;;;5013080;28;20392;-88
2021/10/12 11:22:16;;;;;;;6.40;1.50;;;;;;;;;;5031200;28;20153;-88
2021/10/12 11:24:43;;;;;;;11.03;2.37;;;;;;;;;;5013074;28;20923;-88
2021/10/12 11:27:09;;;;;;;5.65;1.48;;;;;;;;;;5030806;28;20677;-88
2021/10/12 11:29:34;;;;;;;5.22;1.67;;;;;;;;;;5012849;28;20037;-88
2021/10/12 11:32:02;;;;;;;6.40;1.73;;;;;;;;;;5013183;28;20025;-88
2021/10/12 11:34:27;;;;;;;6.40;1.27;;;;;;;;;;5013356;28;20028;-88
2021/10/12 11:37:05;;;;;;;6.75;1.52;;;;;;;;;;5013367;28;20384;-87
2021/10/12 11:39:30;;;;;;;7.97;1.58;;;;;;;;;;5012928;28;20036;-88
2021/10/12 11:41:59;;;;;;;7.25;1.88;;;;;;;;;;5012839;28;20021;-87
2021/10/12 11:44:24;;;;;;;9.35;1.52;;;;;;;;;;5012709;28;20029;-87
2021/10/12 11:46:51;;;;;;;4.63;1.40;;;;;;;;;;5030682;28;20453;-87
2021/10/12 11:49:18;;;;;;;6.00;1.65;;;;;;;;;;5011856;28;20448;-87
2021/10/12 11:51:45;;;;;;;5.10;2.17;;;;;;;;;;5029822;28;20022;-87
2021/10/12 11:54:10;;;;;;;7.40;1.60;;;;;;;;;;5012836;28;20026;-87
2021/10/12 11:56:36;;;;;;;8.00;1.58;;;;;;;;;;5012985;28;20021;-88
2021/10/12 11:59:02;;;;;;;5.80;1.30;;;;;;;;;;5029279;28;20124;-88
2021/10/12 12:01:34;;;;;;;14.15;1.40;;;;;;;;;;5030920;28;20126;-88
2021/10/12 12:03:59;;;;;;;36.28;2.15;;;;;;;;;;5031025;28;20076;-88
2021/10/12 12:06:26;;;;;;;37.65;1.65;;;;;;;;;;5031584;28;20060;-88
2021/10/12 12:08:53;;;;;;;4.20;1.23;;;;;;;;;;5012384;28;20037;-88
2021/10/12 12:11:27;;;;;;;4.78;1.33;;;;;;;;;;5012697;28;20066;-88
2021/10/12 12:13:54;;;;;;;4.10;0.90;;;;;;;;;;5012445;28;20119;-88
2021/10/12 12:16:20;;;;;;;7.10;1.30;;;;;;;;;;5012503;28;20833;-89
2021/10/12 12:18:45;;;;;;;7.68;1.30;;;;;;;;;;5012397;28;20029;-88
2021/10/12 12:21:11;;;;;;;7.78;1.30;;;;;;;;;;5012044;28;20051;-88
2021/10/12 12:23:43;;;;;;;4.63;1.52;;;;;;;;;;5012245;28;20025;-88
2021/10/12 12:26:12;;;;;;;3.70;1.00;;;;;;;;;;5030017;28;20021;-88
2021/10/12 12:28:38;;;;;;;3.28;1.48;;;;;;;;;;5011995;28;20022;-89
2021/10/12 12:31:17;;;;;;;24.33;3.92;;;;;;;;;;5011544;28;20030;-89
2021/10/12 12:33:42;;;;;;;3.83;1.25;;;;;;;;;;5029814;28;20025;-88
2021/10/12 12:36:08;;;;;;;1.73;1.20;;;;;;;;;;5012016;28;20432;-89
2021/10/12 12:38:33;;;;;;;2.25;1.10;;;;;;;;;;5012343;28;20022;-89
2021/10/12 12:40:58;;;;;;;1.45;1.10;;;;;;;;;;5029497;28;20202;-89
2021/10/12 12:43:29;;;;;;;2.17;1.00;;;;;;;;;;5012082;28;20127;-89
2021/10/12 12:46:09;;;;;;;3.58;1.30;;;;;;;;;;5029531;28;20555;-89
2021/10/12 12:48:35;;;;;;;2.27;1.37;;;;;;;;;;5011583;28;20040;-88
2021/10/12 12:51:01;;;;;;;1.37;1.20;;;;;;;;;;5011978;28;20256;-88
2021/10/12 12:53:42;;;;;;;2.72;1.17;;;;;;;;;;5013102;28;20256;-88
2021/10/12 12:56:08;;;;;;;1.60;1.33;;;;;;;;;;5015067;28;20076;-88
2021/10/12 12:58:40;;;;;;;2.25;1.35;;;;;;;;;;5015493;28;20049;-88
2021/10/12 13:01:06;;;;;;;0.98;0.98;;;;;;;;;;5012787;28;20740;-89
2021/10/12 13:03:32;;;;;;;2.25;1.00;;;;;;;;;;5031425;28;20868;-89
2021/10/12 13:05:57;;;;;;;4.03;1.05;;;;;;;;;;5015305;28;20029;-89
2021/10/12 13:08:22;;;;;;;2.33;0.80;;;;;;;;;;5031780;28;20484;-89
2021/10/12 13:10:47;;;;;;;1.17;0.90;;;;;;;;;;5029516;28;20296;-89
2021/10/12 13:13:12;;;;;;;1.40;1.00;;;;;;;;;;5031062;28;20762;-89
2021/10/12 13:15:40;;;;;;;2.67;0.90;;;;;;;;;;5032347;28;20084;-89
2021/10/12 13:18:06;;;;;;;3.25;0.90;;;;;;;;;;5030366;28;20492;-89
2021/10/12 13:20:31;;;;;;;1.10;1.00;;;;;;;;;;5031198;28;20029;-89
2021/10/12 13:22:56;;;;;;;1.20;0.90;;;;;;;;;;5013947;28;20269;-89
2021/10/12 13:25:23;;;;;;;3.53;0.90;;;;;;;;;;5032759;28;20612;-89
2021/10/12 13:27:49;;;;;;;2.80;0.80;;;;;;;;;;5033076;28;20283;-89
2021/10/12 13:30:15;;;;;;;1.48;0.80;;;;;;;;;;5032275;28;20049;-89
2021/10/12 13:32:41;;;;;;;2.70;1.10;;;;;;;;;;5013054;28;20511;-89
2021/10/12 13:35:06;;;;;;;4.07;1.00;;;;;;;;;;5032099;28;20249;-89
2021/10/12 13:37:31;;;;;;;2.28;1.00;;;;;;;;;;5014914;28;20500;-89
2021/10/12 13:39:57;;;;;;;5.00;0.90;;;;;;;;;;5014820;28;20460;-89
2021/10/12 13:42:24;;;;;;;4.60;1.10;;;;;;;;;;5032754;28;20100;-89
2021/10/12 13:44:52;;;;;;;2.30;1.13;;;;;;;;;;5017741;28;20025;-89
2021/10/12 13:47:21;;;;;;;2.42;1.00;;;;;;;;;;5035185;28;20018;-88
2021/10/12 13:49:46;;;;;;;3.08;0.70;;;;;;;;;;5018480;28;20076;-88
2021/10/12 13:52:12;;;;;;;5.60;1.15;;;;;;;;;;5018361;28;20045;-89
2021/10/12 13:54:37;;;;;;;4.53;1.45;;;;;;;;;;5036515;28;20458;-89
2021/10/12 13:57:03;;;;;;;4.78;1.33;;;;;;;;;;5018448;28;20424;-89
2021/10/12 13:59:28;;;;;;;2.63;1.10;;;;;;;;;;5035489;28;20018;-89
2021/10/12 14:01:56;;;;;;;5.28;1.20;;;;;;;;;;5033273;28;20020;-89
2021/10/12 14:04:21;;;;;;;3.20;1.10;;;;;;;;;;5033098;28;20026;-89
2021/10/12 14:06:47;;;;;;;3.53;0.90;;;;;;;;;;5031545;28;20036;-89
2021/10/12 14:09:12;;;;;;;1.85;0.98;;;;;;;;;;5015473;28;20040;-89
2021/10/12 14:11:37;;;;;;;3.78;1.20;;;;;;;;;;5033167;28;20163;-88
2021/10/12 14:14:06;;;;;;;3.95;1.20;;;;;;;;;;5027906;28;20057;-88
2021/10/12 14:16:31;;;;;;;2.70;1.08;;;;;;;;;;5052817;28;20036;-88
2021/10/12 14:18:56;;;;;;;4.07;1.60;;;;;;;;;;5034974;28;20025;-88
2021/10/12 14:21:22;;;;;;;4.03;1.33;;;;;;;;;;5035348;28;20087;-88
2021/10/12 14:23:48;;;;;;;5.10;1.20;;;;;;;;;;5052804;28;20049;-89
2021/10/12 14:26:13;;;;;;;2.78;0.90;;;;;;;;;;5034949;28;20021;-89
2021/10/12 14:28:38;;;;;;;2.07;1.00;;;;;;;;;;5034333;28;20380;-88
2021/10/12 14:31:04;;;;;;;3.23;1.33;;;;;;;;;;5034598;28;20035;-89
2021/10/12 14:33:29;;;;;;;5.27;1.13;;;;;;;;;;5034560;28;20025;-89
2021/10/12 14:35:57;;;;;;;4.30;1.10;;;;;;;;;;5051671;28;20098;-89